createdAt,value
2018-04-10T00:00:05.989Z,14.10
2018-04-10T00:02:33.435Z,14.10
2018-04-10T00:05:00.989Z,14.10
2018-04-10T00:07:28.440Z,14.10
2018-04-10T00:09:56.124Z,14.00
2018-04-10T00:12:23.547Z,14.00
2018-04-10T00:14:50.976Z,14.10
2018-04-10T00:17:19.176Z,14.10
2018-04-10T00:19:46.609Z,14.10
2018-04-10T00:22:14.924Z,14.10
2018-04-10T00:24:42.347Z,14.00
2018-04-10T00:27:10.539Z,14.10
2018-04-10T00:29:37.987Z,14.00
2018-04-10T00:32:06.199Z,14.10
2018-04-10T00:34:33.630Z,14.00
2018-04-10T00:37:01.271Z,14.00
2018-04-10T00:39:29.475Z,14.00
2018-04-10T00:41:56.897Z,13.90
2018-04-10T00:44:25.103Z,14.00
2018-04-10T00:46:52.560Z,13.90
2018-04-10T00:49:20.035Z,13.90
2018-04-10T00:51:47.477Z,13.90
2018-04-10T00:54:14.920Z,14.00
2018-04-10T00:56:42.350Z,13.90
2018-04-10T00:59:10.561Z,13.80
2018-04-10T01:01:38.009Z,13.80
2018-04-10T01:04:05.435Z,13.80
2018-04-10T01:06:33.683Z,13.80
2018-04-10T01:09:01.112Z,13.80
2018-04-10T01:11:28.581Z,13.80
2018-04-10T01:13:56.017Z,13.70
2018-04-10T01:16:23.463Z,13.70
2018-04-10T01:18:50.888Z,13.70
2018-04-10T01:21:18.325Z,13.70
2018-04-10T01:23:46.068Z,13.70
2018-04-10T01:26:13.492Z,13.70
2018-04-10T01:28:40.922Z,13.70
2018-04-10T01:31:09.138Z,13.70
2018-04-10T01:33:36.565Z,13.60
2018-04-10T01:36:04.804Z,13.60
2018-04-10T01:38:32.228Z,13.60
2018-04-10T01:40:59.680Z,13.60
2018-04-10T01:43:27.114Z,13.60
2018-04-10T01:45:55.537Z,13.50
2018-04-10T01:48:22.961Z,13.50
2018-04-10T01:50:50.396Z,13.50
2018-04-10T01:53:18.604Z,13.40
2018-04-10T01:55:46.043Z,13.40
2018-04-10T01:58:13.487Z,13.40
2018-04-10T02:00:42.584Z,13.30
2018-04-10T02:03:10.891Z,13.30
2018-04-10T02:05:38.296Z,13.30
2018-04-10T02:08:05.738Z,13.30
2018-04-10T02:10:33.170Z,13.30
2018-04-10T02:13:00.619Z,13.30
2018-04-10T02:15:28.053Z,13.20
2018-04-10T02:17:55.522Z,13.20
2018-04-10T02:20:22.986Z,13.20
2018-04-10T02:22:50.461Z,13.20
2018-04-10T02:25:17.899Z,13.20
2018-04-10T02:27:45.477Z,13.20
2018-04-10T02:30:12.901Z,13.20
2018-04-10T02:32:40.333Z,13.20
2018-04-10T02:35:08.532Z,13.20
2018-04-10T02:37:35.968Z,13.10
2018-04-10T02:40:04.159Z,13.10
2018-04-10T02:42:31.632Z,13.10
2018-04-10T02:44:59.100Z,13.10
2018-04-10T02:47:26.527Z,13.10
2018-04-10T02:49:53.971Z,13.00
2018-04-10T02:52:22.180Z,13.00
2018-04-10T02:54:49.607Z,12.90
2018-04-10T02:57:17.805Z,13.00
2018-04-10T02:59:45.244Z,12.90
2018-04-10T03:02:12.668Z,13.00
2018-04-10T03:04:40.300Z,13.00
2018-04-10T03:07:07.744Z,12.90
2018-04-10T03:09:35.189Z,12.90
2018-04-10T03:12:02.622Z,12.90
2018-04-10T03:14:30.817Z,12.90
2018-04-10T03:16:58.258Z,12.80
2018-04-10T03:19:26.678Z,12.80
2018-04-10T03:21:54.116Z,12.70
2018-04-10T03:24:21.535Z,12.80
2018-04-10T03:26:49.972Z,12.70
2018-04-10T03:29:17.411Z,12.70
2018-04-10T03:31:44.840Z,12.70
2018-04-10T03:34:13.042Z,12.60
2018-04-10T03:36:40.749Z,12.50
2018-04-10T03:39:08.143Z,12.60
2018-04-10T03:41:35.571Z,12.60
2018-04-10T03:44:04.006Z,12.50
2018-04-10T03:46:31.439Z,12.50
2018-04-10T03:48:58.861Z,12.50
2018-04-10T03:51:27.404Z,12.40
2018-04-10T03:53:54.842Z,12.40
2018-04-10T03:56:22.273Z,12.30
2018-04-10T03:58:50.696Z,12.30
2018-04-10T04:01:18.129Z,12.30
2018-04-10T04:03:45.551Z,12.30
2018-04-10T04:06:13.753Z,12.20
2018-04-10T04:08:41.180Z,12.20
2018-04-10T04:11:09.383Z,12.10
2018-04-10T04:13:36.851Z,12.10
2018-04-10T04:16:04.318Z,12.20
2018-04-10T04:21:52.747Z,12.30
2018-04-10T04:24:21.063Z,12.30
2018-04-10T04:26:48.484Z,12.20
2018-04-10T04:29:16.682Z,12.30
2018-04-10T04:31:44.120Z,12.30
2018-04-10T04:34:11.560Z,12.30
2018-04-10T04:36:39.761Z,12.30
2018-04-10T04:39:07.212Z,12.20
2018-04-10T04:41:34.827Z,12.30
2018-04-10T04:44:02.266Z,12.30
2018-04-10T04:46:29.701Z,12.30
2018-04-10T04:48:57.145Z,12.30
2018-04-10T04:51:24.594Z,12.20
2018-04-10T04:53:52.025Z,12.30
2018-04-10T04:56:19.599Z,12.20
2018-04-10T04:58:47.809Z,12.00
2018-04-10T05:01:15.250Z,12.00
2018-04-10T05:03:42.663Z,12.00
2018-04-10T05:06:10.296Z,12.00
2018-04-10T05:08:37.743Z,11.90
2018-04-10T05:11:05.181Z,12.00
2018-04-10T05:13:32.658Z,12.00
2018-04-10T05:16:00.079Z,12.10
2018-04-10T05:18:27.680Z,12.10
2018-04-10T05:20:55.119Z,12.10
2018-04-10T05:23:22.564Z,12.20
2018-04-10T05:25:50.256Z,12.20
2018-04-10T05:28:17.686Z,12.20
2018-04-10T05:30:45.134Z,12.30
2018-04-10T05:33:13.344Z,12.40
2018-04-10T05:35:40.848Z,12.30
2018-04-10T05:38:08.244Z,12.40
2018-04-10T05:40:35.699Z,12.50
2018-04-10T05:43:03.145Z,12.50
2018-04-10T05:45:30.596Z,12.60
2018-04-10T05:47:58.020Z,12.60
2018-04-10T05:50:26.245Z,12.70
2018-04-10T05:52:54.685Z,12.70
2018-04-10T05:55:22.886Z,12.80
2018-04-10T05:57:50.348Z,12.80
2018-04-10T06:00:17.805Z,12.90
2018-04-10T06:02:45.232Z,12.90
2018-04-10T06:05:13.469Z,12.90
2018-04-10T06:07:40.927Z,12.90
2018-04-10T06:10:08.365Z,13.00
2018-04-10T06:12:36.016Z,13.10
2018-04-10T06:15:03.444Z,13.10
2018-04-10T06:17:31.847Z,13.20
2018-04-10T06:19:59.334Z,13.20
2018-04-10T06:22:26.776Z,13.30
2018-04-10T06:24:54.441Z,13.40
2018-04-10T06:27:21.867Z,13.50
2018-04-10T06:29:49.308Z,13.60
2018-04-10T06:32:17.548Z,13.80
2018-04-10T06:34:44.981Z,13.70
2018-04-10T06:37:12.459Z,13.80
2018-04-10T06:39:39.863Z,13.90
2018-04-10T06:42:07.329Z,14.00
2018-04-10T06:44:34.831Z,14.10
2018-04-10T06:47:02.483Z,14.20
2018-04-10T06:49:29.916Z,14.30
2018-04-10T06:51:57.360Z,14.30
2018-04-10T06:54:24.834Z,14.50
2018-04-10T06:56:52.264Z,14.50
2018-04-10T06:59:19.741Z,14.60
2018-04-10T07:01:47.193Z,14.70
2018-04-10T07:04:14.700Z,14.70
2018-04-10T07:06:42.133Z,14.80
2018-04-10T07:09:09.594Z,14.90
2018-04-10T07:11:37.028Z,14.80
2018-04-10T07:14:04.710Z,15.00
2018-04-10T07:16:32.680Z,15.00
2018-04-10T07:19:00.116Z,15.20
2018-04-10T07:21:27.568Z,15.30
2018-04-10T07:23:55.032Z,15.30
2018-04-10T07:26:22.506Z,15.30
2018-04-10T07:28:49.941Z,15.40
2018-04-10T07:31:17.512Z,15.40
2018-04-10T07:33:44.954Z,15.40
2018-04-10T07:36:12.388Z,15.40
2018-04-10T07:38:39.838Z,15.50
2018-04-10T07:41:08.053Z,15.60
2018-04-10T07:43:35.493Z,15.50
2018-04-10T07:46:02.957Z,15.60
2018-04-10T07:48:31.144Z,15.60
2018-04-10T07:50:58.586Z,15.60
2018-04-10T07:53:26.025Z,15.70
2018-04-10T07:55:53.472Z,15.70
2018-04-10T07:58:20.908Z,15.80
2018-04-10T08:00:48.382Z,15.80
2018-04-10T08:03:15.792Z,15.70
2018-04-10T08:05:43.244Z,15.80
2018-04-10T08:08:11.632Z,15.80
2018-04-10T08:10:39.090Z,15.80
2018-04-10T08:13:06.541Z,15.80
2018-04-10T08:15:33.981Z,15.80
2018-04-10T08:18:01.457Z,15.90
2018-04-10T08:20:28.883Z,15.90
2018-04-10T08:22:56.340Z,15.90
2018-04-10T08:25:23.784Z,15.90
2018-04-10T08:27:51.269Z,15.90
2018-04-10T08:30:18.705Z,15.90
2018-04-10T08:32:46.148Z,15.90
2018-04-10T08:35:14.364Z,15.90
2018-04-10T08:37:41.821Z,15.80
2018-04-10T08:40:09.264Z,15.90
2018-04-10T08:42:36.705Z,16.00
2018-04-10T08:45:04.514Z,16.00
2018-04-10T08:47:31.968Z,16.10
2018-04-10T08:49:59.408Z,16.10
2018-04-10T08:52:26.864Z,16.10
2018-04-10T08:54:54.297Z,16.20
2018-04-10T08:57:21.760Z,16.20
2018-04-10T08:59:49.209Z,16.20
2018-04-10T09:02:16.647Z,16.20
2018-04-10T09:04:44.950Z,16.30
2018-04-10T09:07:12.492Z,16.20
2018-04-10T09:09:39.932Z,16.40
2018-04-10T09:12:08.360Z,16.30
2018-04-10T09:17:09.829Z,16.40
2018-04-10T09:19:37.272Z,16.40
2018-04-10T09:22:04.743Z,16.50
2018-04-10T09:24:32.189Z,16.40
2018-04-10T09:26:59.663Z,16.50
2018-04-10T09:29:27.118Z,16.50
2018-04-10T09:31:54.569Z,16.60
2018-04-10T09:34:22.026Z,16.60
2018-04-10T09:36:49.486Z,16.70
2018-04-10T09:39:17.063Z,16.70
2018-04-10T09:41:44.496Z,16.70
2018-04-10T09:44:11.938Z,16.80
2018-04-10T09:46:39.402Z,16.70
2018-04-10T09:49:06.833Z,16.80
2018-04-10T09:51:34.277Z,16.90
2018-04-10T09:54:02.513Z,16.80
2018-04-10T09:56:29.988Z,16.70
2018-04-10T09:58:57.412Z,16.80
2018-04-10T10:01:24.871Z,16.80
2018-04-10T10:03:52.320Z,16.80
2018-04-10T10:06:19.771Z,16.80
2018-04-10T10:08:47.225Z,16.80
2018-04-10T10:11:14.681Z,16.80
2018-04-10T10:13:42.151Z,16.80
2018-04-10T10:16:09.667Z,16.80
2018-04-10T10:18:37.904Z,16.80
2018-04-10T10:21:05.349Z,16.80
2018-04-10T10:23:32.908Z,16.80
2018-04-10T10:26:00.366Z,16.80
2018-04-10T10:28:27.780Z,16.90
2018-04-10T10:30:55.233Z,17.00
2018-04-10T10:33:22.664Z,17.00
2018-04-10T10:35:50.100Z,17.10
2018-04-10T10:38:18.319Z,17.30
2018-04-10T10:40:45.750Z,17.20
2018-04-10T10:43:13.196Z,17.40
2018-04-10T10:45:40.628Z,17.40
2018-04-10T10:48:08.081Z,17.50
2018-04-10T10:50:35.536Z,17.60
2018-04-10T10:53:02.956Z,17.90
2018-04-10T10:55:30.415Z,18.10
2018-04-10T10:57:57.856Z,18.30
2018-04-10T11:00:26.096Z,18.30
2018-04-10T11:02:53.541Z,18.30
2018-04-10T11:05:20.968Z,18.40
2018-04-10T11:07:48.491Z,18.40
2018-04-10T11:10:15.916Z,18.50
2018-04-10T11:12:43.353Z,18.50
2018-04-10T11:15:10.808Z,18.70
2018-04-10T11:17:38.244Z,18.70
2018-04-10T11:20:05.948Z,18.80
2018-04-10T11:22:33.392Z,18.90
2018-04-10T11:25:00.880Z,18.90
2018-04-10T11:27:28.331Z,19.00
2018-04-10T11:29:55.780Z,19.20
2018-04-10T11:32:23.212Z,19.20
2018-04-10T11:34:50.657Z,19.30
2018-04-10T11:37:18.109Z,19.50
2018-04-10T11:39:45.568Z,19.60
2018-04-10T11:42:13.028Z,19.60
2018-04-10T11:44:41.248Z,19.60
2018-04-10T11:47:08.680Z,19.50
2018-04-10T11:49:36.146Z,19.30
2018-04-10T11:52:03.595Z,19.20
2018-04-10T11:54:31.061Z,19.10
2018-04-10T11:56:58.552Z,19.10
2018-04-10T11:59:25.993Z,19.20
2018-04-10T12:01:54.956Z,19.20
2018-04-10T12:04:22.416Z,19.20
2018-04-10T12:06:49.857Z,19.30
2018-04-10T12:09:17.311Z,19.40
2018-04-10T12:11:44.761Z,19.40
2018-04-10T12:14:12.224Z,19.40
2018-04-10T12:16:39.810Z,19.40
2018-04-10T12:19:07.274Z,19.40
2018-04-10T12:21:34.704Z,19.30
2018-04-10T12:24:02.351Z,19.20
2018-04-10T12:26:29.794Z,19.20
2018-04-10T12:28:57.993Z,19.10
2018-04-10T12:31:25.432Z,19.10
2018-04-10T12:33:52.883Z,19.20
2018-04-10T12:36:20.324Z,19.10
2018-04-10T12:38:48.540Z,19.20
2018-04-10T12:41:15.976Z,19.10
2018-04-10T12:43:43.430Z,19.20
2018-04-10T12:46:11.029Z,19.30
2018-04-10T12:48:38.472Z,19.40
2018-04-10T12:51:05.912Z,19.50
2018-04-10T12:53:33.396Z,19.70
2018-04-10T12:56:00.869Z,19.90
2018-04-10T12:58:28.288Z,20.00
2018-04-10T13:00:55.762Z,20.10
2018-04-10T13:03:23.195Z,20.30
2018-04-10T13:05:50.645Z,20.50
2018-04-10T13:08:18.089Z,20.50
2018-04-10T13:10:46.306Z,20.60
2018-04-10T13:13:13.759Z,20.60
2018-04-10T13:15:41.243Z,20.60
2018-04-10T13:18:08.784Z,20.70
2018-04-10T13:20:36.243Z,20.70
2018-04-10T13:23:03.668Z,20.80
2018-04-10T13:25:31.111Z,20.90
2018-04-10T13:27:58.555Z,20.90
2018-04-10T13:30:26.766Z,20.90
2018-04-10T13:32:54.205Z,20.90
2018-04-10T13:35:21.660Z,21.00
2018-04-10T13:37:49.107Z,21.00
2018-04-10T13:40:17.833Z,21.20
2018-04-10T13:42:45.277Z,21.10
2018-04-10T13:45:12.737Z,21.20
2018-04-10T13:47:40.213Z,21.10
2018-04-10T13:50:07.680Z,21.00
2018-04-10T13:52:35.112Z,21.00
2018-04-10T13:55:02.790Z,21.00
2018-04-10T13:57:30.231Z,20.80
2018-04-10T13:59:57.670Z,20.70
2018-04-10T14:02:25.113Z,20.60
2018-04-10T14:04:53.339Z,20.60
2018-04-10T14:07:20.772Z,20.60
2018-04-10T14:09:48.327Z,20.60
2018-04-10T14:12:15.758Z,20.50
2018-04-10T14:14:43.955Z,20.20
2018-04-10T14:17:11.401Z,20.20
2018-04-10T14:19:38.827Z,20.20
2018-04-10T14:22:06.275Z,20.10
2018-04-10T14:24:33.704Z,20.00
2018-04-10T14:27:01.140Z,19.90
2018-04-10T14:29:28.584Z,19.80
2018-04-10T14:31:56.020Z,19.80
2018-04-10T14:34:24.248Z,19.70
2018-04-10T14:36:51.721Z,19.70
2018-04-10T14:39:19.136Z,19.70
2018-04-10T14:41:46.559Z,19.70
2018-04-10T14:44:14.773Z,19.70
2018-04-10T14:46:42.215Z,19.60
2018-04-10T14:49:09.648Z,19.60
2018-04-10T14:51:37.881Z,19.50
2018-04-10T14:54:05.329Z,19.50
2018-04-10T14:56:32.876Z,19.50
2018-04-10T14:59:00.303Z,19.40
2018-04-10T15:01:28.492Z,19.30
2018-04-10T15:03:55.941Z,19.20
2018-04-10T15:06:23.377Z,19.30
2018-04-10T15:08:51.577Z,19.30
2018-04-10T15:11:19.012Z,19.30
2018-04-10T15:13:47.232Z,19.30
2018-04-10T15:16:14.676Z,19.20
2018-04-10T15:18:42.129Z,19.20
2018-04-10T15:21:09.716Z,19.20
2018-04-10T15:23:37.168Z,19.10
2018-04-10T15:26:04.593Z,19.10
2018-04-10T15:28:32.027Z,19.10
2018-04-10T15:31:00.244Z,19.00
2018-04-10T15:33:27.685Z,19.00
2018-04-10T15:35:55.117Z,19.00
2018-04-10T15:38:23.324Z,18.90
2018-04-10T15:40:50.747Z,18.90
2018-04-10T15:43:18.949Z,18.90
2018-04-10T15:45:46.393Z,18.80
2018-04-10T15:48:13.834Z,18.90
2018-04-10T15:50:42.052Z,18.90
2018-04-10T15:53:09.486Z,18.80
2018-04-10T15:55:36.932Z,18.90
2018-04-10T15:58:04.387Z,18.90
2018-04-10T16:00:32.601Z,18.90
2018-04-10T16:03:00.043Z,18.90
2018-04-10T16:05:27.500Z,18.80
2018-04-10T16:07:54.921Z,18.90
2018-04-10T16:10:23.200Z,18.90
2018-04-10T16:12:51.436Z,18.80
2018-04-10T16:15:18.875Z,18.80
2018-04-10T16:17:46.381Z,18.70
2018-04-10T16:20:13.827Z,18.70
2018-04-10T16:22:41.559Z,18.60
2018-04-10T16:25:08.994Z,18.50
2018-04-10T16:27:36.425Z,18.50
2018-04-10T16:30:04.629Z,18.40
2018-04-10T16:32:32.078Z,18.30
2018-04-10T16:34:59.510Z,18.30
2018-04-10T16:37:28.732Z,18.30
2018-04-10T16:39:56.197Z,18.30
2018-04-10T16:42:23.669Z,18.30
2018-04-10T16:44:52.104Z,18.20
2018-04-10T16:47:20.308Z,18.20
2018-04-10T16:49:47.749Z,18.20
2018-04-10T16:52:15.188Z,18.20
2018-04-10T16:54:43.399Z,18.10
2018-04-10T16:57:10.831Z,18.10
2018-04-10T16:59:38.256Z,18.10
2018-04-10T17:02:05.697Z,18.00
2018-04-10T17:04:33.137Z,18.00
2018-04-10T17:07:00.573Z,18.00
2018-04-10T17:09:27.999Z,17.90
2018-04-10T17:11:56.294Z,18.20
2018-04-10T17:14:24.492Z,18.40
2018-04-10T17:16:51.925Z,18.40
2018-04-10T17:19:19.381Z,18.50
2018-04-10T17:21:46.862Z,18.60
2018-04-10T17:24:14.313Z,18.70
2018-04-10T17:26:41.745Z,18.70
2018-04-10T17:29:09.209Z,18.60
2018-04-10T17:31:37.396Z,18.70
2018-04-10T17:34:04.825Z,18.70
2018-04-10T17:36:32.272Z,18.50
2018-04-10T17:39:00.474Z,18.30
2018-04-10T17:41:27.892Z,18.20
2018-04-10T17:43:56.113Z,18.00
2018-04-10T17:46:23.551Z,17.90
2018-04-10T17:48:51.755Z,17.80
2018-04-10T17:51:19.203Z,17.70
2018-04-10T17:53:46.633Z,17.70
2018-04-10T17:56:14.067Z,17.60
2018-04-10T17:58:41.495Z,17.50
2018-04-10T18:01:08.945Z,17.50
2018-04-10T18:06:32.105Z,17.40
2018-04-10T18:08:59.633Z,17.40
2018-04-10T18:11:27.884Z,17.30
2018-04-10T18:13:55.414Z,17.30
2018-04-10T18:16:22.942Z,17.30
2018-04-10T18:18:50.446Z,17.20
2018-04-10T18:21:17.901Z,17.20
2018-04-10T18:23:45.365Z,17.20
2018-04-10T18:26:13.705Z,17.20
2018-04-10T18:28:41.198Z,17.10
2018-04-10T18:31:08.692Z,17.20
2018-04-10T18:33:36.232Z,17.10
2018-04-10T18:36:03.907Z,17.10
2018-04-10T18:38:31.430Z,17.10
2018-04-10T18:40:58.946Z,17.10
2018-04-10T18:43:26.749Z,17.00
2018-04-10T18:45:54.230Z,17.00
2018-04-10T18:48:21.747Z,16.90
2018-04-10T18:50:49.293Z,16.90
2018-04-10T18:53:17.308Z,16.90
2018-04-10T18:55:44.819Z,16.90
2018-04-10T18:58:12.435Z,16.80
2018-04-10T19:00:39.989Z,16.80
2018-04-10T19:03:07.750Z,16.70
2018-04-10T19:05:35.238Z,16.70
2018-04-10T19:08:02.728Z,16.60
2018-04-10T19:10:30.233Z,16.60
2018-04-10T19:12:57.758Z,16.60
2018-04-10T19:15:27.555Z,16.60
2018-04-10T19:17:55.103Z,16.60
2018-04-10T19:20:22.658Z,16.60
2018-04-10T19:22:50.199Z,16.50
2018-04-10T19:25:17.721Z,16.30
2018-04-10T19:27:45.233Z,16.20
2018-04-10T19:30:12.831Z,16.10
2018-04-10T19:32:40.574Z,15.90
2018-04-10T19:35:08.838Z,15.70
2018-04-10T19:37:36.390Z,15.60
2018-04-10T19:40:03.940Z,15.60
2018-04-10T19:42:31.483Z,15.60
2018-04-10T19:44:59.057Z,15.40
2018-04-10T19:47:26.549Z,15.40
2018-04-10T19:49:54.123Z,15.30
2018-04-10T19:52:21.635Z,15.10
2018-04-10T19:54:49.272Z,15.10
2018-04-10T19:57:26.680Z,15.00
2018-04-10T20:02:26.569Z,14.90
2018-04-10T20:04:54.784Z,14.90
2018-04-10T20:07:22.223Z,14.80
2018-04-10T20:09:49.673Z,14.80
2018-04-10T20:12:17.914Z,14.60
2018-04-10T20:14:45.380Z,14.50
2018-04-10T20:17:13.026Z,14.50
2018-04-10T20:19:40.453Z,14.40
2018-04-10T20:22:07.904Z,14.30
2018-04-10T20:24:35.340Z,14.30
2018-04-10T20:27:02.808Z,14.30
2018-04-10T20:29:30.239Z,14.20
2018-04-10T20:31:58.468Z,14.00
2018-04-10T20:34:26.191Z,13.90
2018-04-10T20:36:53.632Z,14.00
2018-04-10T20:39:21.834Z,13.80
2018-04-10T20:41:49.273Z,13.80
2018-04-10T20:44:16.735Z,13.80
2018-04-10T20:46:44.174Z,13.80
2018-04-10T20:49:11.641Z,13.80
2018-04-10T20:51:39.868Z,13.90
2018-04-10T20:54:07.336Z,13.80
2018-04-10T20:56:35.035Z,13.90
2018-04-10T20:59:03.228Z,13.90
2018-04-10T21:01:30.665Z,13.80
2018-04-10T21:03:58.881Z,14.00
2018-04-10T21:06:26.328Z,13.90
2018-04-10T21:08:53.794Z,13.90
2018-04-10T21:11:21.245Z,13.90
2018-04-10T21:13:48.676Z,14.00
2018-04-10T21:16:16.125Z,14.00
2018-04-10T21:18:44.323Z,13.90
2018-04-10T21:21:11.754Z,13.80
2018-04-10T21:23:39.981Z,13.90
2018-04-10T21:26:07.637Z,13.80
2018-04-10T21:28:35.078Z,13.80
2018-04-10T21:31:02.571Z,13.80
2018-04-10T21:33:30.221Z,13.70
2018-04-10T21:35:57.654Z,13.70
2018-04-10T21:38:25.086Z,13.60
2018-04-10T21:40:53.287Z,13.50
2018-04-10T21:43:26.485Z,13.50
2018-04-10T21:45:53.941Z,13.50
2018-04-10T21:48:21.390Z,13.50
2018-04-10T21:50:48.829Z,13.50
2018-04-10T21:53:16.282Z,13.50
2018-04-10T21:55:43.729Z,13.50
2018-04-10T21:58:11.942Z,13.50
2018-04-10T22:00:39.386Z,13.50
2018-04-10T22:03:07.029Z,13.50
2018-04-10T22:05:34.464Z,13.60
2018-04-10T22:08:02.676Z,13.50
2018-04-10T22:10:30.126Z,13.50
2018-04-10T22:12:57.602Z,13.50
2018-04-10T22:15:25.025Z,13.50
2018-04-10T22:17:52.509Z,13.50
2018-04-10T22:20:19.901Z,13.50
2018-04-10T22:22:47.348Z,13.50
2018-04-10T22:25:14.827Z,13.50
2018-04-10T22:27:42.253Z,13.50
2018-04-10T22:30:09.689Z,13.60
2018-04-10T22:32:37.109Z,13.50
2018-04-10T22:35:04.542Z,13.50
2018-04-10T22:37:32.764Z,13.60
2018-04-10T22:40:00.210Z,13.50
2018-04-10T22:42:27.648Z,13.60
2018-04-10T22:44:55.089Z,13.60
2018-04-10T22:47:23.289Z,13.70
2018-04-10T22:49:50.740Z,13.60
2018-04-10T22:52:18.179Z,13.60
2018-04-10T22:54:45.614Z,13.50
2018-04-10T22:57:13.813Z,13.40
2018-04-10T22:59:41.259Z,13.40
2018-04-10T23:02:09.469Z,13.40
2018-04-10T23:04:36.908Z,13.40
2018-04-10T23:07:04.360Z,13.40
2018-04-10T23:09:32.561Z,13.30
2018-04-10T23:12:00.027Z,13.30
2018-04-10T23:14:27.708Z,13.40
2018-04-10T23:16:55.156Z,13.40
2018-04-10T23:19:22.589Z,13.40
2018-04-10T23:21:50.029Z,13.40
2018-04-10T23:35:43.308Z,13.40
2018-04-10T23:38:10.775Z,13.30
2018-04-10T23:40:38.222Z,13.30
2018-04-10T23:43:05.656Z,13.20
2018-04-10T23:45:33.878Z,13.10
2018-04-10T23:48:01.546Z,13.00
2018-04-10T23:50:28.982Z,13.00
2018-04-10T23:52:56.412Z,12.90
2018-04-10T23:55:23.927Z,12.80
2018-04-10T23:57:52.393Z,12.90
